sensor_id;sensor_type;location;lat;lon;timestamp;pressure;altitude;pressure_sealevel;temperature;humidity
77776;BME280;66965;43.328;6.668;2023-03-29T00:00:26;102437.09;;;10.91;46.32
77776;BME280;66965;43.328;6.668;2023-03-29T00:02:52;102449.31;;;10.86;46.62
77776;BME280;66965;43.328;6.668;2023-03-29T00:05:21;102438.75;;;10.61;46.92
77776;BME280;66965;43.328;6.668;2023-03-29T00:07:47;102449.03;;;10.27;47.62
77776;BME280;66965;43.328;6.668;2023-03-29T00:10:20;102448.88;;;10.07;49.61
77776;BME280;66965;43.328;6.668;2023-03-29T00:12:47;102441.13;;;10.19;49.08
77776;BME280;66965;43.328;6.668;2023-03-29T00:15:12;102443.63;;;10.07;49.30
77776;BME280;66965;43.328;6.668;2023-03-29T00:17:38;102438.38;;;10.05;49.97
77776;BME280;66965;43.328;6.668;2023-03-29T00:20:04;102444.66;;;10.26;49.38
77776;BME280;66965;43.328;6.668;2023-03-29T00:22:33;102448.00;;;10.05;50.58
77776;BME280;66965;43.328;6.668;2023-03-29T00:24:58;102436.75;;;10.15;49.27
77776;BME280;66965;43.328;6.668;2023-03-29T00:27:24;102442.03;;;10.24;48.25
77776;BME280;66965;43.328;6.668;2023-03-29T00:29:49;102433.31;;;10.24;48.35
77776;BME280;66965;43.328;6.668;2023-03-29T00:32:15;102431.34;;;9.97;49.21
77776;BME280;66965;43.328;6.668;2023-03-29T00:34:40;102428.56;;;9.77;49.54
77776;BME280;66965;43.328;6.668;2023-03-29T00:37:07;102420.06;;;10.08;48.95
77776;BME280;66965;43.328;6.668;2023-03-29T00:39:35;102423.47;;;9.95;49.21
77776;BME280;66965;43.328;6.668;2023-03-29T00:42:01;102425.47;;;10.30;48.07
77776;BME280;66965;43.328;6.668;2023-03-29T00:47:41;102421.91;;;10.19;48.80
77776;BME280;66965;43.328;6.668;2023-03-29T00:50:23;102415.59;;;9.94;49.02
77776;BME280;66965;43.328;6.668;2023-03-29T00:55:37;102411.34;;;10.08;49.31
77776;BME280;66965;43.328;6.668;2023-03-29T00:58:08;102407.97;;;10.26;48.35
77776;BME280;66965;43.328;6.668;2023-03-29T01:00:40;102399.28;;;10.36;48.37
77776;BME280;66965;43.328;6.668;2023-03-29T01:03:11;102397.59;;;10.47;47.98
77776;BME280;66965;43.328;6.668;2023-03-29T01:05:46;102387.91;;;10.29;47.99
77776;BME280;66965;43.328;6.668;2023-03-29T01:08:22;102388.56;;;9.96;48.69
77776;BME280;66965;43.328;6.668;2023-03-29T01:11:16;102389.47;;;10.04;49.64
77776;BME280;66965;43.328;6.668;2023-03-29T01:13:52;102390.19;;;9.79;50.24
77776;BME280;66965;43.328;6.668;2023-03-29T01:16:21;102388.59;;;10.05;48.59
77776;BME280;66965;43.328;6.668;2023-03-29T01:18:47;102391.31;;;10.19;48.96
77776;BME280;66965;43.328;6.668;2023-03-29T01:26:46;102396.84;;;10.75;47.08
77776;BME280;66965;43.328;6.668;2023-03-29T01:29:49;102398.59;;;10.85;47.01
77776;BME280;66965;43.328;6.668;2023-03-29T01:32:24;102397.78;;;10.98;46.58
77776;BME280;66965;43.328;6.668;2023-03-29T01:35:05;102395.19;;;11.10;46.57
77776;BME280;66965;43.328;6.668;2023-03-29T01:37:37;102392.56;;;11.28;45.64
77776;BME280;66965;43.328;6.668;2023-03-29T01:40:05;102391.69;;;11.26;46.11
77776;BME280;66965;43.328;6.668;2023-03-29T01:45:40;102389.97;;;11.36;46.04
77776;BME280;66965;43.328;6.668;2023-03-29T01:48:51;102382.06;;;11.28;46.16
77776;BME280;66965;43.328;6.668;2023-03-29T01:51:22;102375.94;;;11.34;46.28
77776;BME280;66965;43.328;6.668;2023-03-29T01:56:28;102372.47;;;11.35;46.53
77776;BME280;66965;43.328;6.668;2023-03-29T01:58:59;102361.94;;;11.37;46.45
77776;BME280;66965;43.328;6.668;2023-03-29T02:01:30;102363.72;;;11.33;46.74
77776;BME280;66965;43.328;6.668;2023-03-29T02:04:03;102360.22;;;11.28;46.89
77776;BME280;66965;43.328;6.668;2023-03-29T02:06:31;102361.06;;;11.28;47.04
77776;BME280;66965;43.328;6.668;2023-03-29T02:08:58;102354.97;;;11.31;47.28
77776;BME280;66965;43.328;6.668;2023-03-29T02:11:25;102354.94;;;11.23;47.25
77776;BME280;66965;43.328;6.668;2023-03-29T02:13:51;102349.69;;;11.26;47.42
77776;BME280;66965;43.328;6.668;2023-03-29T02:16:18;102346.19;;;11.21;47.51
77776;BME280;66965;43.328;6.668;2023-03-29T02:18:45;102345.34;;;11.25;47.34
77776;BME280;66965;43.328;6.668;2023-03-29T02:21:21;102352.31;;;11.05;47.89
77776;BME280;66965;43.328;6.668;2023-03-29T02:23:49;102343.56;;;11.15;47.81
77776;BME280;66965;43.328;6.668;2023-03-29T02:26:18;102343.56;;;11.12;48.04
77776;BME280;66965;43.328;6.668;2023-03-29T02:28:43;102334.81;;;11.16;47.69
77776;BME280;66965;43.328;6.668;2023-03-29T02:31:19;102342.69;;;11.07;48.02
77776;BME280;66965;43.328;6.668;2023-03-29T02:34:10;102344.44;;;11.10;48.31
77776;BME280;66965;43.328;6.668;2023-03-29T02:36:44;102334.81;;;11.04;48.40
77776;BME280;66965;43.328;6.668;2023-03-29T02:39:12;102322.56;;;11.15;48.26
77776;BME280;66965;43.328;6.668;2023-03-29T02:41:41;102333.94;;;11.20;47.99
77776;BME280;66965;43.328;6.668;2023-03-29T02:44:10;102341.81;;;11.23;48.51
77776;BME280;66965;43.328;6.668;2023-03-29T02:46:38;102337.44;;;11.24;49.52
77776;BME280;66965;43.328;6.668;2023-03-29T02:49:07;102320.81;;;11.02;49.40
77776;BME280;66965;43.328;6.668;2023-03-29T02:51:34;102330.41;;;10.87;49.99
77776;BME280;66965;43.328;6.668;2023-03-29T02:56:28;102327.69;;;10.55;50.73
77776;BME280;66965;43.328;6.668;2023-03-29T02:58:54;102330.28;;;10.44;51.48
77776;BME280;66965;43.328;6.668;2023-03-29T03:01:20;102327.69;;;10.43;51.28
77776;BME280;66965;43.328;6.668;2023-03-29T03:03:47;102323.22;;;10.21;52.23
77776;BME280;66965;43.328;6.668;2023-03-29T03:06:15;102324.94;;;10.13;52.19
77776;BME280;66965;43.328;6.668;2023-03-29T03:08:40;102318.63;;;9.86;53.13
77776;BME280;66965;43.328;6.668;2023-03-29T03:11:06;102324.56;;;9.60;53.76
77776;BME280;66965;43.328;6.668;2023-03-29T03:13:33;102318.25;;;9.32;54.81
77776;BME280;66965;43.328;6.668;2023-03-29T03:15:58;102312.81;;;9.08;55.58
77776;BME280;66965;43.328;6.668;2023-03-29T03:18:25;102315.28;;;8.89;56.44
77776;BME280;66965;43.328;6.668;2023-03-29T03:20:56;102309.38;;;9.12;56.30
77776;BME280;66965;43.328;6.668;2023-03-29T03:23:21;102320.63;;;9.05;56.05
77776;BME280;66965;43.328;6.668;2023-03-29T03:25:47;102319.81;;;9.10;55.82
77776;BME280;66965;43.328;6.668;2023-03-29T03:28:13;102314.78;;;9.33;54.21
77776;BME280;66965;43.328;6.668;2023-03-29T03:30:39;102323.59;;;9.45;54.80
77776;BME280;66965;43.328;6.668;2023-03-29T03:33:04;102314.94;;;9.54;55.48
77776;BME280;66965;43.328;6.668;2023-03-29T03:35:29;102314.66;;;9.15;56.34
77776;BME280;66965;43.328;6.668;2023-03-29T03:37:55;102305.16;;;9.26;55.91
77776;BME280;66965;43.328;6.668;2023-03-29T03:40:20;102309.66;;;9.46;55.01
77776;BME280;66965;43.328;6.668;2023-03-29T03:42:46;102310.63;;;9.62;54.23
77776;BME280;66965;43.328;6.668;2023-03-29T03:45:12;102310.69;;;9.71;55.16
77776;BME280;66965;43.328;6.668;2023-03-29T03:47:37;102308.97;;;9.76;56.63
77776;BME280;66965;43.328;6.668;2023-03-29T03:50:04;102314.22;;;9.79;56.81
77776;BME280;66965;43.328;6.668;2023-03-29T03:52:30;102304.66;;;9.80;56.96
77776;BME280;66965;43.328;6.668;2023-03-29T03:54:55;102311.56;;;9.70;58.21
77776;BME280;66965;43.328;6.668;2023-03-29T03:57:20;102298.41;;;9.58;59.15
77776;BME280;66965;43.328;6.668;2023-03-29T03:59:47;102301.94;;;9.62;58.76
77776;BME280;66965;43.328;6.668;2023-03-29T04:02:13;102305.38;;;9.59;59.55
77776;BME280;66965;43.328;6.668;2023-03-29T04:04:39;102305.38;;;9.58;58.82
77776;BME280;66965;43.328;6.668;2023-03-29T04:07:05;102296.63;;;9.54;59.63
77776;BME280;66965;43.328;6.668;2023-03-29T04:09:32;102309.69;;;9.54;59.63
77776;BME280;66965;43.328;6.668;2023-03-29T04:11:59;102308.63;;;9.26;61.00
77776;BME280;66965;43.328;6.668;2023-03-29T04:14:26;102303.34;;;9.17;60.76
77776;BME280;66965;43.328;6.668;2023-03-29T04:16:52;102314.25;;;8.75;59.29
77776;BME280;66965;43.328;6.668;2023-03-29T04:19:19;102302.81;;;8.63;58.79
77776;BME280;66965;43.328;6.668;2023-03-29T04:21:44;102299.44;;;8.74;59.04
77776;BME280;66965;43.328;6.668;2023-03-29T04:24:12;102304.75;;;8.83;59.09
77776;BME280;66965;43.328;6.668;2023-03-29T04:26:38;102294.50;;;9.08;58.01
77776;BME280;66965;43.328;6.668;2023-03-29T04:29:03;102297.19;;;9.14;59.83
77776;BME280;66965;43.328;6.668;2023-03-29T04:31:29;102309.41;;;9.16;59.76
77776;BME280;66965;43.328;6.668;2023-03-29T04:33:56;102309.50;;;9.27;58.61
77776;BME280;66965;43.328;6.668;2023-03-29T04:36:21;102311.16;;;9.16;58.25
77776;BME280;66965;43.328;6.668;2023-03-29T04:38:47;102319.97;;;9.27;58.80
77776;BME280;66965;43.328;6.668;2023-03-29T04:41:13;102310.28;;;9.14;58.40
77776;BME280;66965;43.328;6.668;2023-03-29T04:43:40;102313.03;;;9.32;59.50
77776;BME280;66965;43.328;6.668;2023-03-29T04:46:06;102314.75;;;9.28;59.94
77776;BME280;66965;43.328;6.668;2023-03-29T04:48:32;102320.75;;;9.17;61.00
77776;BME280;66965;43.328;6.668;2023-03-29T04:50:57;102321.72;;;9.29;60.42
77776;BME280;66965;43.328;6.668;2023-03-29T04:53:23;102321.66;;;9.22;60.45
77776;BME280;66965;43.328;6.668;2023-03-29T04:55:49;102321.69;;;9.25;60.77
77776;BME280;66965;43.328;6.668;2023-03-29T04:58:15;102322.53;;;9.18;62.38
77776;BME280;66965;43.328;6.668;2023-03-29T05:00:41;102331.13;;;9.06;63.05
77776;BME280;66965;43.328;6.668;2023-03-29T05:03:07;102326.03;;;9.20;62.52
77776;BME280;66965;43.328;6.668;2023-03-29T05:05:35;102331.13;;;9.06;62.67
77776;BME280;66965;43.328;6.668;2023-03-29T05:08:01;102321.56;;;9.07;61.65
77776;BME280;66965;43.328;6.668;2023-03-29T05:10:27;102330.25;;;9.04;61.24
77776;BME280;66965;43.328;6.668;2023-03-29T05:12:52;102331.69;;;8.73;59.67
77776;BME280;66965;43.328;6.668;2023-03-29T05:15:21;102325.59;;;8.76;59.51
77776;BME280;66965;43.328;6.668;2023-03-29T05:17:47;102333.41;;;8.74;58.46
77776;BME280;66965;43.328;6.668;2023-03-29T05:20:14;102331.84;;;8.91;58.14
77776;BME280;66965;43.328;6.668;2023-03-29T05:22:40;102337.94;;;8.87;58.36
77776;BME280;66965;43.328;6.668;2023-03-29T05:25:06;102342.31;;;8.90;57.84
77776;BME280;66965;43.328;6.668;2023-03-29T05:27:33;102336.06;;;8.76;57.65
77776;BME280;66965;43.328;6.668;2023-03-29T05:29:59;102333.38;;;8.68;56.73
77776;BME280;66965;43.328;6.668;2023-03-29T05:32:26;102337.75;;;8.72;55.94
77776;BME280;66965;43.328;6.668;2023-03-29T05:34:51;102340.66;;;9.00;54.80
77776;BME280;66965;43.328;6.668;2023-03-29T05:37:17;102339.09;;;9.21;54.22
77776;BME280;66965;43.328;6.668;2023-03-29T05:39:43;102336.53;;;9.27;54.00
77776;BME280;66965;43.328;6.668;2023-03-29T05:42:09;102346.91;;;9.18;53.93
77776;BME280;66965;43.328;6.668;2023-03-29T05:44:38;102335.66;;;9.27;53.98
77776;BME280;66965;43.328;6.668;2023-03-29T05:47:04;102343.50;;;9.25;53.94
77776;BME280;66965;43.328;6.668;2023-03-29T05:49:29;102341.03;;;9.42;54.01
77776;BME280;66965;43.328;6.668;2023-03-29T05:51:55;102341.03;;;9.42;53.84
77776;BME280;66965;43.328;6.668;2023-03-29T05:54:22;102352.56;;;9.67;53.23
77776;BME280;66965;43.328;6.668;2023-03-29T05:56:48;102340.34;;;9.66;53.71
77776;BME280;66965;43.328;6.668;2023-03-29T05:59:13;102340.44;;;9.78;55.36
77776;BME280;66965;43.328;6.668;2023-03-29T06:01:39;102343.88;;;9.72;56.66
77776;BME280;66965;43.328;6.668;2023-03-29T06:04:06;102341.38;;;9.90;57.92
77776;BME280;66965;43.328;6.668;2023-03-29T06:06:31;102339.66;;;9.98;58.28
77776;BME280;66965;43.328;6.668;2023-03-29T06:08:56;102334.47;;;10.04;58.50
77776;BME280;66965;43.328;6.668;2023-03-29T06:11:22;102336.34;;;10.24;56.67
77776;BME280;66965;43.328;6.668;2023-03-29T06:13:48;102336.34;;;10.27;53.64
77776;BME280;66965;43.328;6.668;2023-03-29T06:16:14;102344.25;;;10.42;53.17
77776;BME280;66965;43.328;6.668;2023-03-29T06:18:40;102345.13;;;10.39;50.88
77776;BME280;66965;43.328;6.668;2023-03-29T06:21:07;102333.81;;;10.55;50.32
77776;BME280;66965;43.328;6.668;2023-03-29T06:23:33;102338.16;;;10.44;49.74
77776;BME280;66965;43.328;6.668;2023-03-29T06:26:00;102341.63;;;10.39;50.06
77776;BME280;66965;43.328;6.668;2023-03-29T06:28:26;102345.16;;;10.42;49.38
77776;BME280;66965;43.328;6.668;2023-03-29T06:30:51;102339.97;;;10.62;48.19
77776;BME280;66965;43.328;6.668;2023-03-29T06:33:21;102339.09;;;10.64;48.20
77776;BME280;66965;43.328;6.668;2023-03-29T06:35:47;102333.88;;;10.60;48.38
77776;BME280;66965;43.328;6.668;2023-03-29T06:38:14;102339.16;;;10.92;47.71
77776;BME280;66965;43.328;6.668;2023-03-29T06:40:40;102347.97;;;11.22;47.58
77776;BME280;66965;43.328;6.668;2023-03-29T06:43:07;102352.34;;;11.39;46.89
77776;BME280;66965;43.328;6.668;2023-03-29T06:45:35;102360.19;;;11.57;45.92
77776;BME280;66965;43.328;6.668;2023-03-29T06:48:01;102367.22;;;11.73;44.51
77776;BME280;66965;43.328;6.668;2023-03-29T06:50:27;102371.56;;;11.83;44.74
77776;BME280;66965;43.328;6.668;2023-03-29T06:52:53;102377.72;;;11.89;44.77
77776;BME280;66965;43.328;6.668;2023-03-29T06:55:18;102367.19;;;11.99;45.09
77776;BME280;66965;43.328;6.668;2023-03-29T06:57:45;102368.91;;;12.10;44.10
77776;BME280;66965;43.328;6.668;2023-03-29T07:00:11;102356.59;;;12.20;44.23
77776;BME280;66965;43.328;6.668;2023-03-29T07:03:03;102356.59;;;12.20;44.69
77776;BME280;66965;43.328;6.668;2023-03-29T07:05:31;102357.41;;;12.38;43.56
77776;BME280;66965;43.328;6.668;2023-03-29T07:07:57;102370.50;;;12.54;42.92
77776;BME280;66965;43.328;6.668;2023-03-29T07:10:37;102373.94;;;12.69;41.84
77776;BME280;66965;43.328;6.668;2023-03-29T07:13:07;102377.34;;;12.89;40.74
77776;BME280;66965;43.328;6.668;2023-03-29T07:15:34;102376.34;;;13.10;39.94
77776;BME280;66965;43.328;6.668;2023-03-29T07:18:00;102377.97;;;13.29;39.96
77776;BME280;66965;43.328;6.668;2023-03-29T07:20:27;102394.38;;;13.61;39.47
77776;BME280;66965;43.328;6.668;2023-03-29T07:22:53;102398.69;;;13.72;38.25
77776;BME280;66965;43.328;6.668;2023-03-29T07:25:22;102402.16;;;13.78;36.53
77776;BME280;66965;43.328;6.668;2023-03-29T07:27:49;102397.84;;;13.66;37.53
77776;BME280;66965;43.328;6.668;2023-03-29T07:30:23;102395.31;;;13.60;36.57
77776;BME280;66965;43.328;6.668;2023-03-29T07:32:50;102394.34;;;13.66;36.56
77776;BME280;66965;43.328;6.668;2023-03-29T07:35:16;102391.63;;;13.80;36.11
77776;BME280;66965;43.328;6.668;2023-03-29T07:37:43;102395.81;;;13.99;36.23
77776;BME280;66965;43.328;6.668;2023-03-29T07:40:13;102393.13;;;14.02;37.69
77776;BME280;66965;43.328;6.668;2023-03-29T07:42:46;102397.38;;;14.16;37.18
77776;BME280;66965;43.328;6.668;2023-03-29T07:45:13;102396.84;;;14.63;37.02
77776;BME280;66965;43.328;6.668;2023-03-29T07:47:40;102397.09;;;15.11;35.71
77776;BME280;66965;43.328;6.668;2023-03-29T07:50:07;102397.78;;;15.77;35.25
77776;BME280;66965;43.328;6.668;2023-03-29T07:52:35;102403.56;;;15.98;34.89
77776;BME280;66965;43.328;6.668;2023-03-29T07:55:00;102394.22;;;15.81;36.73
77776;BME280;66965;43.328;6.668;2023-03-29T07:57:26;102392.81;;;16.52;35.63
77776;BME280;66965;43.328;6.668;2023-03-29T07:59:52;102394.69;;;17.28;36.23
77776;BME280;66965;43.328;6.668;2023-03-29T08:02:18;102392.50;;;17.45;36.55
77776;BME280;66965;43.328;6.668;2023-03-29T08:04:45;102402.97;;;18.19;35.55
77776;BME280;66965;43.328;6.668;2023-03-29T08:07:11;102396.34;;;18.66;35.82
77776;BME280;66965;43.328;6.668;2023-03-29T08:09:37;102395.25;;;18.73;35.66
77776;BME280;66965;43.328;6.668;2023-03-29T08:12:03;102400.00;;;18.62;38.64
77776;BME280;66965;43.328;6.668;2023-03-29T08:14:29;102403.38;;;19.53;37.62
77776;BME280;66965;43.328;6.668;2023-03-29T08:16:54;102408.25;;;18.82;39.63
77776;BME280;66965;43.328;6.668;2023-03-29T08:19:20;102413.56;;;19.67;37.23
77776;BME280;66965;43.328;6.668;2023-03-29T08:21:45;102411.19;;;19.58;38.83
77776;BME280;66965;43.328;6.668;2023-03-29T08:24:12;102402.72;;;20.22;37.92
77776;BME280;66965;43.328;6.668;2023-03-29T08:26:37;102397.72;;;20.62;38.41
77776;BME280;66965;43.328;6.668;2023-03-29T08:29:03;102400.88;;;20.49;38.35
77776;BME280;66965;43.328;6.668;2023-03-29T08:31:28;102391.13;;;19.74;40.99
77776;BME280;66965;43.328;6.668;2023-03-29T08:33:54;102396.44;;;19.74;40.50
77776;BME280;66965;43.328;6.668;2023-03-29T08:36:19;102387.03;;;20.62;37.95
77776;BME280;66965;43.328;6.668;2023-03-29T08:38:45;102369.66;;;20.76;39.06
77776;BME280;66965;43.328;6.668;2023-03-29T08:41:21;102374.38;;;20.91;36.53
77776;BME280;66965;43.328;6.668;2023-03-29T08:44:00;102371.69;;;21.14;36.13
77776;BME280;66965;43.328;6.668;2023-03-29T08:46:39;102373.84;;;20.59;38.00
77776;BME280;66965;43.328;6.668;2023-03-29T08:49:09;102371.59;;;20.94;36.71
77776;BME280;66965;43.328;6.668;2023-03-29T08:51:48;102374.03;;;21.43;35.77
77776;BME280;66965;43.328;6.668;2023-03-29T08:56:42;102363.06;;;21.71;34.36
77776;BME280;66965;43.328;6.668;2023-03-29T08:59:18;102357.41;;;21.58;37.60
77776;BME280;66965;43.328;6.668;2023-03-29T09:01:47;102352.84;;;21.60;38.55
77776;BME280;66965;43.328;6.668;2023-03-29T09:04:27;102340.16;;;21.23;34.72
77776;BME280;66965;43.328;6.668;2023-03-29T09:06:53;102328.59;;;22.25;32.09
77776;BME280;66965;43.328;6.668;2023-03-29T09:09:24;102335.63;;;22.28;33.43
77776;BME280;66965;43.328;6.668;2023-03-29T09:11:57;102336.38;;;22.11;37.73
77776;BME280;66965;43.328;6.668;2023-03-29T09:14:57;102335.09;;;21.59;40.90
77776;BME280;66965;43.328;6.668;2023-03-29T09:17:51;102329.28;;;21.70;40.21
77776;BME280;66965;43.328;6.668;2023-03-29T09:28:35;102336.31;;;20.65;45.59
77776;BME280;66965;43.328;6.668;2023-03-29T09:31:11;102335.72;;;20.34;46.60
77776;BME280;66965;43.328;6.668;2023-03-29T09:33:43;102333.25;;;20.05;46.90
77776;BME280;66965;43.328;6.668;2023-03-29T09:38:40;102343.66;;;20.59;46.18
77776;BME280;66965;43.328;6.668;2023-03-29T09:41:18;102329.59;;;20.99;45.39
77776;BME280;66965;43.328;6.668;2023-03-29T09:43:46;102333.56;;;20.67;45.98
77776;BME280;66965;43.328;6.668;2023-03-29T09:46:22;102329.34;;;20.61;45.95
77776;BME280;66965;43.328;6.668;2023-03-29T09:48:50;102329.81;;;20.94;45.59
77776;BME280;66965;43.328;6.668;2023-03-29T09:51:20;102323.16;;;20.13;47.76
77776;BME280;66965;43.328;6.668;2023-03-29T09:53:48;102316.53;;;20.48;46.41
77776;BME280;66965;43.328;6.668;2023-03-29T09:56:14;102316.28;;;20.99;45.04
77776;BME280;66965;43.328;6.668;2023-03-29T09:58:41;102307.03;;;20.86;44.57
77776;BME280;66965;43.328;6.668;2023-03-29T10:01:11;102305.63;;;20.32;46.50
77776;BME280;66965;43.328;6.668;2023-03-29T10:03:39;102295.09;;;19.80;48.05
77776;BME280;66965;43.328;6.668;2023-03-29T10:06:07;102314.63;;;20.28;46.67
77776;BME280;66965;43.328;6.668;2023-03-29T10:08:38;102304.13;;;20.47;46.32
77776;BME280;66965;43.328;6.668;2023-03-29T10:11:34;102290.28;;;20.60;46.56
77776;BME280;66965;43.328;6.668;2023-03-29T10:14:10;102289.72;;;20.74;46.10
77776;BME280;66965;43.328;6.668;2023-03-29T10:16:38;102298.69;;;20.73;45.98
77776;BME280;66965;43.328;6.668;2023-03-29T10:21:58;102290.47;;;21.63;44.53
77776;BME280;66965;43.328;6.668;2023-03-29T10:24:25;102290.25;;;21.67;43.39
77776;BME280;66965;43.328;6.668;2023-03-29T10:27:02;102296.63;;;21.23;44.74
77776;BME280;66965;43.328;6.668;2023-03-29T10:29:34;102286.09;;;21.20;44.62
77776;BME280;66965;43.328;6.668;2023-03-29T10:32:13;102277.66;;;20.65;46.11
77776;BME280;66965;43.328;6.668;2023-03-29T10:34:38;102278.94;;;20.99;46.30
77776;BME280;66965;43.328;6.668;2023-03-29T10:37:04;102287.47;;;20.42;46.81
77776;BME280;66965;43.328;6.668;2023-03-29T10:39:34;102275.91;;;20.86;46.24
77776;BME280;66965;43.328;6.668;2023-03-29T10:42:01;102269.31;;;21.38;45.39
77776;BME280;66965;43.328;6.668;2023-03-29T10:44:30;102268.81;;;21.08;45.96
77776;BME280;66965;43.328;6.668;2023-03-29T10:47:06;102257.25;;;21.50;45.37
77776;BME280;66965;43.328;6.668;2023-03-29T10:49:39;102248.97;;;21.36;44.99
77776;BME280;66965;43.328;6.668;2023-03-29T10:52:06;102265.84;;;21.97;43.45
77776;BME280;66965;43.328;6.668;2023-03-29T10:54:33;102264.47;;;22.63;42.78
77776;BME280;66965;43.328;6.668;2023-03-29T10:57:04;102251.84;;;22.66;42.73
77776;BME280;66965;43.328;6.668;2023-03-29T10:59:46;102247.88;;;21.60;44.89
77776;BME280;66965;43.328;6.668;2023-03-29T11:02:27;102245.63;;;22.47;43.38
77776;BME280;66965;43.328;6.668;2023-03-29T11:08:39;102253.63;;;21.51;45.55
77776;BME280;66965;43.328;6.668;2023-03-29T11:22:06;102230.53;;;21.09;46.75
77776;BME280;66965;43.328;6.668;2023-03-29T11:30:35;102237.91;;;21.03;47.20
77776;BME280;66965;43.328;6.668;2023-03-29T11:46:02;102224.38;;;21.68;46.77
77776;BME280;66965;43.328;6.668;2023-03-29T11:48:35;102222.63;;;22.07;45.09
77776;BME280;66965;43.328;6.668;2023-03-29T11:51:09;102210.47;;;22.37;44.80
77776;BME280;66965;43.328;6.668;2023-03-29T11:56:43;102220.44;;;21.97;45.92
77776;BME280;66965;43.328;6.668;2023-03-29T11:59:13;102208.53;;;22.04;45.84
77776;BME280;66965;43.328;6.668;2023-03-29T12:01:47;102202.66;;;22.14;46.10
77776;BME280;66965;43.328;6.668;2023-03-29T12:04:20;102198.88;;;21.22;47.89
77776;BME280;66965;43.328;6.668;2023-03-29T12:06:56;102196.75;;;21.30;47.84
77776;BME280;66965;43.328;6.668;2023-03-29T12:09:39;102210.13;;;21.49;47.40
77776;BME280;66965;43.328;6.668;2023-03-29T12:12:25;102197.69;;;21.68;47.17
77776;BME280;66965;43.328;6.668;2023-03-29T12:15:30;102192.09;;;21.74;47.38
77776;BME280;66965;43.328;6.668;2023-03-29T12:18:04;102189.34;;;22.50;45.27
77776;BME280;66965;43.328;6.668;2023-03-29T12:20:35;102188.97;;;22.93;43.97
77776;BME280;66965;43.328;6.668;2023-03-29T12:23:05;102186.91;;;22.64;44.82
77776;BME280;66965;43.328;6.668;2023-03-29T12:31:16;102174.25;;;23.19;43.31
77776;BME280;66965;43.328;6.668;2023-03-29T12:39:42;102155.47;;;24.49;40.55
77776;BME280;66965;43.328;6.668;2023-03-29T12:42:15;102164.09;;;23.91;41.45
77776;BME280;66965;43.328;6.668;2023-03-29T12:44:48;102141.75;;;24.39;40.70
77776;BME280;66965;43.328;6.668;2023-03-29T12:47:20;102143.81;;;24.18;40.96
77776;BME280;66965;43.328;6.668;2023-03-29T12:49:51;102138.28;;;23.90;41.27
77776;BME280;66965;43.328;6.668;2023-03-29T12:52:29;102133.63;;;23.28;43.06
77776;BME280;66965;43.328;6.668;2023-03-29T12:54:58;102145.28;;;24.08;40.93
77776;BME280;66965;43.328;6.668;2023-03-29T12:57:41;102145.47;;;22.90;43.63
77776;BME280;66965;43.328;6.668;2023-03-29T13:00:21;102124.94;;;22.90;44.16
77776;BME280;66965;43.328;6.668;2023-03-29T13:03:05;102130.53;;;22.86;43.99
77776;BME280;66965;43.328;6.668;2023-03-29T13:05:43;102135.94;;;22.84;43.45
77776;BME280;66965;43.328;6.668;2023-03-29T13:08:20;102125.44;;;23.31;42.92
77776;BME280;66965;43.328;6.668;2023-03-29T13:10:55;102132.63;;;23.64;42.17
77776;BME280;66965;43.328;6.668;2023-03-29T13:13:29;102135.59;;;23.42;42.62
77776;BME280;66965;43.328;6.668;2023-03-29T13:16:11;102147.09;;;23.10;43.54
77776;BME280;66965;43.328;6.668;2023-03-29T13:19:02;102137.00;;;23.49;43.03
77776;BME280;66965;43.328;6.668;2023-03-29T13:24:29;102137.50;;;23.40;42.50
77776;BME280;66965;43.328;6.668;2023-03-29T13:40:44;102137.16;;;22.60;44.69
77776;BME280;66965;43.328;6.668;2023-03-29T13:46:15;102125.16;;;23.53;42.45
77776;BME280;66965;43.328;6.668;2023-03-29T13:53:44;102105.31;;;23.41;42.61
77776;BME280;66965;43.328;6.668;2023-03-29T13:56:17;102111.81;;;23.69;42.54
77776;BME280;66965;43.328;6.668;2023-03-29T13:58:47;102115.88;;;23.91;41.74
77776;BME280;66965;43.328;6.668;2023-03-29T14:04:16;102104.78;;;23.00;43.89
77776;BME280;66965;43.328;6.668;2023-03-29T14:06:49;102110.63;;;22.74;44.87
77776;BME280;66965;43.328;6.668;2023-03-29T14:09:18;102126.56;;;22.23;45.40
77776;BME280;66965;43.328;6.668;2023-03-29T14:11:46;102113.59;;;22.32;45.34
77776;BME280;66965;43.328;6.668;2023-03-29T14:14:12;102106.59;;;22.49;45.42
77776;BME280;66965;43.328;6.668;2023-03-29T14:16:39;102120.84;;;22.83;44.67
77776;BME280;66965;43.328;6.668;2023-03-29T14:19:29;102109.97;;;23.03;44.02
77776;BME280;66965;43.328;6.668;2023-03-29T14:21:58;102105.59;;;23.84;41.85
77776;BME280;66965;43.328;6.668;2023-03-29T14:24:34;102113.53;;;22.70;44.91
77776;BME280;66965;43.328;6.668;2023-03-29T14:27:01;102101.44;;;22.44;46.41
77776;BME280;66965;43.328;6.668;2023-03-29T14:32:16;102105.69;;;22.31;45.87
77776;BME280;66965;43.328;6.668;2023-03-29T14:34:46;102100.53;;;21.72;47.57
77776;BME280;66965;43.328;6.668;2023-03-29T14:37:15;102109.97;;;21.79;47.52
77776;BME280;66965;43.328;6.668;2023-03-29T14:39:41;102104.34;;;21.85;47.52
77776;BME280;66965;43.328;6.668;2023-03-29T14:42:14;102107.75;;;22.60;46.42
77776;BME280;66965;43.328;6.668;2023-03-29T14:44:42;102102.34;;;21.53;47.97
77776;BME280;66965;43.328;6.668;2023-03-29T14:47:15;102090.66;;;21.93;47.71
77776;BME280;66965;43.328;6.668;2023-03-29T14:49:41;102102.38;;;21.51;48.44
77776;BME280;66965;43.328;6.668;2023-03-29T14:52:08;102097.84;;;22.09;47.34
77776;BME280;66965;43.328;6.668;2023-03-29T14:54:35;102097.88;;;21.91;47.67
77776;BME280;66965;43.328;6.668;2023-03-29T14:57:03;102089.63;;;21.76;47.73
77776;BME280;66965;43.328;6.668;2023-03-29T14:59:37;102096.22;;;21.12;48.83